sensor_id;sensor_type;location;lat;lon;timestamp;pressure;altitude;pressure_sealevel;temperature;humidity
17505;BME280;8870;50.950;11.762;2023-02-23T00:04:21;97940.72;;;9.32;100.00
17505;BME280;8870;50.950;11.762;2023-02-23T00:09:40;97946.44;;;9.37;100.00
17505;BME280;8870;50.950;11.762;2023-02-23T00:15:17;97945.78;;;9.35;100.00
17505;BME280;8870;50.950;11.762;2023-02-23T00:20:35;97943.41;;;9.32;100.00
17505;BME280;8870;50.950;11.762;2023-02-23T00:26:09;97937.72;;;9.35;100.00
17505;BME280;8870;50.950;11.762;2023-02-23T00:31:45;97931.84;;;9.39;100.00
17505;BME280;8870;50.950;11.762;2023-02-23T00:37:03;97935.69;;;9.37;100.00
17505;BME280;8870;50.950;11.762;2023-02-23T00:42:36;97932.66;;;9.32;100.00
17505;BME280;8870;50.950;11.762;2023-02-23T00:47:56;97946.41;;;9.29;100.00
17505;BME280;8870;50.950;11.762;2023-02-23T00:53:31;97942.38;;;9.24;100.00
17505;BME280;8870;50.950;11.762;2023-02-23T00:58:49;97939.84;;;9.23;100.00
17505;BME280;8870;50.950;11.762;2023-02-23T01:04:22;97929.44;;;9.20;100.00
17505;BME280;8870;50.950;11.762;2023-02-23T01:09:41;97941.03;;;9.20;100.00
17505;BME280;8870;50.950;11.762;2023-02-23T01:15:12;97934.66;;;9.21;100.00
17505;BME280;8870;50.950;11.762;2023-02-23T01:20:33;97933.97;;;9.19;100.00
17505;BME280;8870;50.950;11.762;2023-02-23T01:26:05;97932.28;;;9.18;100.00
17505;BME280;8870;50.950;11.762;2023-02-23T01:31:29;97924.56;;;9.15;100.00
17505;BME280;8870;50.950;11.762;2023-02-23T01:37:02;97922.19;;;9.12;100.00
17505;BME280;8870;50.950;11.762;2023-02-23T01:42:22;97924.88;;;9.12;100.00
17505;BME280;8870;50.950;11.762;2023-02-23T01:47:55;97916.81;;;9.12;100.00
17505;BME280;8870;50.950;11.762;2023-02-23T01:53:19;97918.50;;;9.13;100.00
17505;BME280;8870;50.950;11.762;2023-02-23T01:58:55;97920.84;;;9.08;100.00
17505;BME280;8870;50.950;11.762;2023-02-23T02:04:14;97922.69;;;9.07;100.00
17505;BME280;8870;50.950;11.762;2023-02-23T02:09:52;97921.50;;;9.02;100.00
17505;BME280;8870;50.950;11.762;2023-02-23T02:15:24;97908.41;;;8.99;100.00
17505;BME280;8870;50.950;11.762;2023-02-23T02:21:30;97910.03;;;8.91;100.00
17505;BME280;8870;50.950;11.762;2023-02-23T02:27:21;97907.53;;;8.90;100.00
17505;BME280;8870;50.950;11.762;2023-02-23T02:38:53;97907.03;;;8.86;100.00
17505;BME280;8870;50.950;11.762;2023-02-23T02:44:36;97909.03;;;8.84;100.00
17505;BME280;8870;50.950;11.762;2023-02-23T02:50:02;97903.81;;;8.83;100.00
17505;BME280;8870;50.950;11.762;2023-02-23T02:55:40;97911.03;;;8.82;100.00
17505;BME280;8870;50.950;11.762;2023-02-23T03:01:07;97907.66;;;8.80;100.00
17505;BME280;8870;50.950;11.762;2023-02-23T03:06:58;97905.28;;;8.77;100.00
17505;BME280;8870;50.950;11.762;2023-02-23T03:12:40;97899.59;;;8.72;100.00
17505;BME280;8870;50.950;11.762;2023-02-23T03:18:38;97907.63;;;8.72;100.00
17505;BME280;8870;50.950;11.762;2023-02-23T03:24:17;97907.28;;;8.67;100.00
17505;BME280;8870;50.950;11.762;2023-02-23T03:30:16;97915.31;;;8.58;100.00
17505;BME280;8870;50.950;11.762;2023-02-23T03:35:51;97916.78;;;8.53;100.00
17505;BME280;8870;50.950;11.762;2023-02-23T03:41:40;97924.59;;;8.46;100.00
17505;BME280;8870;50.950;11.762;2023-02-23T03:47:15;97921.19;;;8.36;100.00
17505;BME280;8870;50.950;11.762;2023-02-23T03:53:02;97924.38;;;8.31;100.00
17505;BME280;8870;50.950;11.762;2023-02-23T03:58:37;97924.34;;;8.23;100.00
17505;BME280;8870;50.950;11.762;2023-02-23T04:04:26;97935.84;;;8.15;100.00
17505;BME280;8870;50.950;11.762;2023-02-23T04:09:58;97930.09;;;8.10;100.00
17505;BME280;8870;50.950;11.762;2023-02-23T04:15:48;97941.13;;;8.07;100.00
17505;BME280;8870;50.950;11.762;2023-02-23T04:21:08;97942.13;;;8.06;100.00
17505;BME280;8870;50.950;11.762;2023-02-23T04:26:39;97939.63;;;8.04;100.00
17505;BME280;8870;50.950;11.762;2023-02-23T04:32:12;97937.09;;;8.02;100.00
17505;BME280;8870;50.950;11.762;2023-02-23T04:37:34;97937.94;;;8.03;100.00
17505;BME280;8870;50.950;11.762;2023-02-23T04:43:05;97939.63;;;8.04;100.00
17505;BME280;8870;50.950;11.762;2023-02-23T04:48:23;97942.47;;;8.02;100.00
17505;BME280;8870;50.950;11.762;2023-02-23T04:53:58;97940.78;;;8.01;100.00
17505;BME280;8870;50.950;11.762;2023-02-23T04:59:16;97944.78;;;7.97;100.00
17505;BME280;8870;50.950;11.762;2023-02-23T05:04:47;97950.13;;;7.97;100.00
17505;BME280;8870;50.950;11.762;2023-02-23T05:10:09;97949.31;;;7.97;100.00
17505;BME280;8870;50.950;11.762;2023-02-23T05:15:41;97955.50;;;7.97;100.00
17505;BME280;8870;50.950;11.762;2023-02-23T05:21:04;97958.34;;;7.96;100.00
17505;BME280;8870;50.950;11.762;2023-02-23T05:26:37;97964.88;;;7.93;100.00
17505;BME280;8870;50.950;11.762;2023-02-23T05:31:56;97959.81;;;7.90;100.00
17505;BME280;8870;50.950;11.762;2023-02-23T05:37:27;97956.13;;;7.91;100.00
17505;BME280;8870;50.950;11.762;2023-02-23T05:42:48;97957.13;;;7.90;100.00
17505;BME280;8870;50.950;11.762;2023-02-23T05:48:19;97955.44;;;7.89;100.00
17505;BME280;8870;50.950;11.762;2023-02-23T05:53:37;97970.84;;;7.87;100.00
17505;BME280;8870;50.950;11.762;2023-02-23T05:59:13;97974.22;;;7.89;100.00
17505;BME280;8870;50.950;11.762;2023-02-23T06:04:31;97975.38;;;7.86;100.00
17505;BME280;8870;50.950;11.762;2023-02-23T06:10:04;97979.06;;;7.85;100.00
17505;BME280;8870;50.950;11.762;2023-02-23T06:15:26;97990.63;;;7.86;100.00
17505;BME280;8870;50.950;11.762;2023-02-23T06:21:01;97988.63;;;7.88;100.00
17505;BME280;8870;50.950;11.762;2023-02-23T06:26:20;97994.16;;;7.86;100.00
17505;BME280;8870;50.950;11.762;2023-02-23T06:31:55;97995.16;;;7.85;100.00
17505;BME280;8870;50.950;11.762;2023-02-23T06:37:20;98000.34;;;7.87;100.00
17505;BME280;8870;50.950;11.762;2023-02-23T06:42:51;97996.66;;;7.88;100.00
17505;BME280;8870;50.950;11.762;2023-02-23T06:48:12;97998.19;;;7.91;100.00
17505;BME280;8870;50.950;11.762;2023-02-23T06:53:43;98011.47;;;7.92;100.00
17505;BME280;8870;50.950;11.762;2023-02-23T06:59:01;98015.69;;;7.95;100.00
17505;BME280;8870;50.950;11.762;2023-02-23T07:04:35;98017.19;;;7.97;100.00
17505;BME280;8870;50.950;11.762;2023-02-23T07:09:53;98022.41;;;7.99;100.00
17505;BME280;8870;50.950;11.762;2023-02-23T07:15:25;98024.09;;;8.00;100.00
17505;BME280;8870;50.950;11.762;2023-02-23T07:20:46;98018.28;;;8.05;100.00
17505;BME280;8870;50.950;11.762;2023-02-23T07:26:17;98027.69;;;8.09;100.00
17505;BME280;8870;50.950;11.762;2023-02-23T07:31:35;98023.88;;;8.11;100.00
17505;BME280;8870;50.950;11.762;2023-02-23T07:37:10;98027.91;;;8.15;100.00
17505;BME280;8870;50.950;11.762;2023-02-23T07:42:28;98026.75;;;8.18;100.00
17505;BME280;8870;50.950;11.762;2023-02-23T07:48:00;98016.56;;;8.22;100.00
17505;BME280;8870;50.950;11.762;2023-02-23T07:53:22;98030.50;;;8.25;100.00
17505;BME280;8870;50.950;11.762;2023-02-23T07:58:54;98026.88;;;8.35;100.00
17505;BME280;8870;50.950;11.762;2023-02-23T08:04:12;98027.09;;;8.41;100.00
17505;BME280;8870;50.950;11.762;2023-02-23T08:09:46;98038.44;;;8.53;100.00
17505;BME280;8870;50.950;11.762;2023-02-23T08:15:06;98041.88;;;8.63;100.00
17505;BME280;8870;50.950;11.762;2023-02-23T08:20:37;98038.94;;;8.75;100.00
17505;BME280;8870;50.950;11.762;2023-02-23T08:26:05;98036.63;;;8.88;100.00
17505;BME280;8870;50.950;11.762;2023-02-23T08:31:36;98034.19;;;9.03;100.00
17505;BME280;8870;50.950;11.762;2023-02-23T08:36:54;98037.59;;;9.14;100.00
17505;BME280;8870;50.950;11.762;2023-02-23T08:42:28;98029.38;;;9.23;100.00
17505;BME280;8870;50.950;11.762;2023-02-23T08:47:46;98022.88;;;9.34;100.00
17505;BME280;8870;50.950;11.762;2023-02-23T08:53:17;98029.81;;;9.45;100.00
17505;BME280;8870;50.950;11.762;2023-02-23T08:58:40;98038.22;;;9.59;100.00
17505;BME280;8870;50.950;11.762;2023-02-23T09:04:13;98033.22;;;9.64;100.00
17505;BME280;8870;50.950;11.762;2023-02-23T09:09:32;98030.88;;;9.77;100.00
17505;BME280;8870;50.950;11.762;2023-02-23T09:15:07;98030.25;;;9.92;100.00
17505;BME280;8870;50.950;11.762;2023-02-23T09:20:25;98023.34;;;10.06;100.00
17505;BME280;8870;50.950;11.762;2023-02-23T09:25:56;98027.03;;;10.21;100.00
17505;BME280;8870;50.950;11.762;2023-02-23T09:31:19;98031.09;;;10.33;100.00
17505;BME280;8870;50.950;11.762;2023-02-23T09:36:50;98033.28;;;10.38;100.00
17505;BME280;8870;50.950;11.762;2023-02-23T09:42:21;98031.59;;;10.45;100.00
17505;BME280;8870;50.950;11.762;2023-02-23T09:48:08;98043.03;;;10.56;100.00
17505;BME280;8870;50.950;11.762;2023-02-23T09:53:32;98040.31;;;10.72;100.00
17505;BME280;8870;50.950;11.762;2023-02-23T09:59:11;98037.06;;;10.85;100.00
17505;BME280;8870;50.950;11.762;2023-02-23T10:04:35;98031.16;;;10.98;100.00
17505;BME280;8870;50.950;11.762;2023-02-23T10:10:18;98028.41;;;11.06;100.00
17505;BME280;8870;50.950;11.762;2023-02-23T10:15:43;98025.97;;;11.28;100.00
17505;BME280;8870;50.950;11.762;2023-02-23T10:21:23;98030.16;;;11.39;100.00
17505;BME280;8870;50.950;11.762;2023-02-23T10:26:53;98030.31;;;11.37;100.00
17505;BME280;8870;50.950;11.762;2023-02-23T10:32:34;98022.06;;;11.39;100.00
17505;BME280;8870;50.950;11.762;2023-02-23T10:37:58;98023.84;;;11.47;100.00
17505;BME280;8870;50.950;11.762;2023-02-23T10:43:30;98026.66;;;11.53;100.00
17505;BME280;8870;50.950;11.762;2023-02-23T10:48:50;98017.41;;;11.56;100.00
17505;BME280;8870;50.950;11.762;2023-02-23T10:54:42;98012.03;;;11.48;100.00
17505;BME280;8870;50.950;11.762;2023-02-23T11:00:07;98016.34;;;11.65;100.00
17505;BME280;8870;50.950;11.762;2023-02-23T11:05:51;98006.88;;;11.69;100.00
17505;BME280;8870;50.950;11.762;2023-02-23T11:11:24;97999.47;;;11.63;100.00
17505;BME280;8870;50.950;11.762;2023-02-23T11:16:57;97995.00;;;11.79;100.00
17505;BME280;8870;50.950;11.762;2023-02-23T11:22:18;98001.47;;;11.93;100.00
17505;BME280;8870;50.950;11.762;2023-02-23T11:27:53;97987.41;;;11.97;100.00
17505;BME280;8870;50.950;11.762;2023-02-23T11:33:27;97985.34;;;12.08;100.00
17505;BME280;8870;50.950;11.762;2023-02-23T11:38:59;97987.38;;;12.06;100.00
17505;BME280;8870;50.950;11.762;2023-02-23T11:44:34;97978.66;;;11.95;100.00
17505;BME280;8870;50.950;11.762;2023-02-23T11:49:53;97975.50;;;11.92;100.00
17505;BME280;8870;50.950;11.762;2023-02-23T11:55:24;97973.03;;;11.82;100.00
17505;BME280;8870;50.950;11.762;2023-02-23T12:00:54;97971.97;;;11.91;100.00
17505;BME280;8870;50.950;11.762;2023-02-23T12:06:29;97964.56;;;11.85;100.00
17505;BME280;8870;50.950;11.762;2023-02-23T12:11:52;97966.59;;;11.83;100.00
17505;BME280;8870;50.950;11.762;2023-02-23T12:17:29;97956.94;;;11.88;100.00
17505;BME280;8870;50.950;11.762;2023-02-23T12:22:53;97958.75;;;11.96;100.00
17505;BME280;8870;50.950;11.762;2023-02-23T12:28:30;97959.84;;;11.87;100.00
17505;BME280;8870;50.950;11.762;2023-02-23T12:34:11;97951.94;;;11.85;100.00
17505;BME280;8870;50.950;11.762;2023-02-23T12:39:33;97953.41;;;11.88;100.00
17505;BME280;8870;50.950;11.762;2023-02-23T12:45:14;97940.28;;;11.85;100.00
17505;BME280;8870;50.950;11.762;2023-02-23T12:50:39;97946.81;;;11.91;100.00
17505;BME280;8870;50.950;11.762;2023-02-23T12:56:31;97945.56;;;11.78;100.00
17505;BME280;8870;50.950;11.762;2023-02-23T13:01:53;97949.59;;;11.82;100.00
17505;BME280;8870;50.950;11.762;2023-02-23T13:07:39;97944.25;;;11.74;100.00
17505;BME280;8870;50.950;11.762;2023-02-23T13:13:12;97951.94;;;11.62;100.00
17505;BME280;8870;50.950;11.762;2023-02-23T13:19:02;97943.91;;;11.54;100.00
17505;BME280;8870;50.950;11.762;2023-02-23T13:24:30;97933.38;;;11.59;100.00
17505;BME280;8870;50.950;11.762;2023-02-23T13:30:04;97943.91;;;11.54;100.00
17505;BME280;8870;50.950;11.762;2023-02-23T13:35:25;97939.59;;;11.45;100.00
17505;BME280;8870;50.950;11.762;2023-02-23T13:41:10;97939.13;;;11.33;100.00
17505;BME280;8870;50.950;11.762;2023-02-23T13:46:42;97938.34;;;11.24;100.00
17505;BME280;8870;50.950;11.762;2023-02-23T13:52:22;97941.28;;;11.14;100.00
17505;BME280;8870;50.950;11.762;2023-02-23T13:57:46;97942.63;;;11.10;100.00
17505;BME280;8870;50.950;11.762;2023-02-23T14:03:22;97933.41;;;11.04;100.00
17505;BME280;8870;50.950;11.762;2023-02-23T14:08:43;97943.38;;;10.95;100.00
17505;BME280;8870;50.950;11.762;2023-02-23T14:14:39;97950.53;;;10.80;100.00
17505;BME280;8870;50.950;11.762;2023-02-23T14:20:10;97951.41;;;10.72;100.00
17505;BME280;8870;50.950;11.762;2023-02-23T14:25:49;97952.75;;;10.68;100.00
17505;BME280;8870;50.950;11.762;2023-02-23T14:31:19;97961.16;;;10.65;100.00
17505;BME280;8870;50.950;11.762;2023-02-23T14:36:51;97964.06;;;10.63;100.00
17505;BME280;8870;50.950;11.762;2023-02-23T14:42:19;97967.75;;;10.62;100.00
17505;BME280;8870;50.950;11.762;2023-02-23T14:47:56;97968.63;;;10.63;100.00
17505;BME280;8870;50.950;11.762;2023-02-23T14:53:19;97966.94;;;10.62;100.00
17505;BME280;8870;50.950;11.762;2023-02-23T14:58:54;97971.81;;;10.58;100.00
17505;BME280;8870;50.950;11.762;2023-02-23T15:04:16;97973.84;;;10.56;100.00
17505;BME280;8870;50.950;11.762;2023-02-23T15:09:51;97983.59;;;10.49;100.00
17505;BME280;8870;50.950;11.762;2023-02-23T15:15:15;97975.53;;;10.49;100.00
17505;BME280;8870;50.950;11.762;2023-02-23T15:20:50;97973.19;;;10.46;100.00
17505;BME280;8870;50.950;11.762;2023-02-23T15:26:15;97971.34;;;10.46;100.00
17505;BME280;8870;50.950;11.762;2023-02-23T15:31:48;97970.66;;;10.44;100.00
17505;BME280;8870;50.950;11.762;2023-02-23T15:37:13;97986.81;;;10.44;100.00
17505;BME280;8870;50.950;11.762;2023-02-23T15:42:47;97981.44;;;10.44;100.00
17505;BME280;8870;50.950;11.762;2023-02-23T15:48:08;97987.81;;;10.43;100.00
17505;BME280;8870;50.950;11.762;2023-02-23T15:53:47;97984.47;;;10.41;100.00
17505;BME280;8870;50.950;11.762;2023-02-23T15:59:11;97980.41;;;10.37;100.00
17505;BME280;8870;50.950;11.762;2023-02-23T16:04:45;97975.53;;;10.32;100.00
17505;BME280;8870;50.950;11.762;2023-02-23T16:10:20;97982.28;;;10.28;100.00
17505;BME280;8870;50.950;11.762;2023-02-23T16:15:53;97980.28;;;10.22;100.00
17505;BME280;8870;50.950;11.762;2023-02-23T16:21:15;97986.00;;;10.11;100.00
17505;BME280;8870;50.950;11.762;2023-02-23T16:26:53;97989.03;;;9.99;100.00
17505;BME280;8870;50.950;11.762;2023-02-23T16:32:33;97985.81;;;9.87;100.00
17505;BME280;8870;50.950;11.762;2023-02-23T16:37:57;97979.94;;;9.76;100.00
17505;BME280;8870;50.950;11.762;2023-02-23T16:43:34;97970.66;;;9.62;100.00
17505;BME280;8870;50.950;11.762;2023-02-23T16:48:53;97964.97;;;9.56;100.00
17505;BME280;8870;50.950;11.762;2023-02-23T16:54:30;97966.13;;;9.54;100.00
17505;BME280;8870;50.950;11.762;2023-02-23T16:59:52;97972.00;;;9.49;100.00
17505;BME280;8870;50.950;11.762;2023-02-23T17:05:35;97968.31;;;9.50;100.00
17505;BME280;8870;50.950;11.762;2023-02-23T17:10:53;97968.31;;;9.50;100.00
17505;BME280;8870;50.950;11.762;2023-02-23T17:16:27;97967.47;;;9.50;100.00
17505;BME280;8870;50.950;11.762;2023-02-23T17:21:46;97964.94;;;9.48;100.00
17505;BME280;8870;50.950;11.762;2023-02-23T17:27:17;97974.69;;;9.49;100.00
17505;BME280;8870;50.950;11.762;2023-02-23T17:32:53;97981.59;;;9.52;100.00
17505;BME280;8870;50.950;11.762;2023-02-23T17:38:11;97985.94;;;9.53;100.00
17505;BME280;8870;50.950;11.762;2023-02-23T17:43:44;97984.13;;;9.53;100.00
17505;BME280;8870;50.950;11.762;2023-02-23T17:49:05;97983.25;;;9.53;100.00
17505;BME280;8870;50.950;11.762;2023-02-23T17:54:36;97986.97;;;9.52;100.00
17505;BME280;8870;50.950;11.762;2023-02-23T17:59:54;97989.81;;;9.50;100.00
17505;BME280;8870;50.950;11.762;2023-02-23T18:05:30;97992.81;;;9.47;100.00
17505;BME280;8870;50.950;11.762;2023-02-23T18:10:50;97994.69;;;9.47;100.00
17505;BME280;8870;50.950;11.762;2023-02-23T18:16:21;97994.84;;;9.45;100.00
17505;BME280;8870;50.950;11.762;2023-02-23T18:21:42;97996.19;;;9.41;100.00
17505;BME280;8870;50.950;11.762;2023-02-23T18:27:16;97995.50;;;9.39;100.00
17505;BME280;8870;50.950;11.762;2023-02-23T18:32:35;97996.34;;;9.39;100.00
17505;BME280;8870;50.950;11.762;2023-02-23T18:38:12;97991.13;;;9.38;100.00
17505;BME280;8870;50.950;11.762;2023-02-23T18:43:31;97988.63;;;9.36;100.00
17505;BME280;8870;50.950;11.762;2023-02-23T18:49:04;97982.56;;;9.34;100.00
17505;BME280;8870;50.950;11.762;2023-02-23T18:54:29;97981.72;;;9.34;100.00
17505;BME280;8870;50.950;11.762;2023-02-23T19:00:05;97985.41;;;9.33;100.00
17505;BME280;8870;50.950;11.762;2023-02-23T19:05:28;97990.94;;;9.31;100.00
17505;BME280;8870;50.950;11.762;2023-02-23T19:11:09;97984.75;;;9.31;100.00
17505;BME280;8870;50.950;11.762;2023-02-23T19:16:29;97983.22;;;9.28;100.00
17505;BME280;8870;50.950;11.762;2023-02-23T19:22:01;97987.75;;;9.28;100.00
17505;BME280;8870;50.950;11.762;2023-02-23T19:27:22;97978.84;;;9.27;100.00
17505;BME280;8870;50.950;11.762;2023-02-23T19:32:54;97986.22;;;9.25;100.00
17505;BME280;8870;50.950;11.762;2023-02-23T19:38:19;97975.47;;;9.25;100.00
17505;BME280;8870;50.950;11.762;2023-02-23T19:43:53;97987.06;;;9.25;100.00
17505;BME280;8870;50.950;11.762;2023-02-23T19:49:12;97981.69;;;9.25;100.00
17505;BME280;8870;50.950;11.762;2023-02-23T19:54:46;97998.91;;;9.06;100.00
17505;BME280;8870;50.950;11.762;2023-02-23T20:00:09;98001.28;;;9.01;100.00
17505;BME280;8870;50.950;11.762;2023-02-23T20:05:40;98001.69;;;8.88;100.00
17505;BME280;8870;50.950;11.762;2023-02-23T20:10:59;97990.44;;;8.85;100.00
17505;BME280;8870;50.950;11.762;2023-02-23T20:16:33;97983.56;;;8.82;100.00
17505;BME280;8870;50.950;11.762;2023-02-23T20:21:52;97991.72;;;8.72;100.00
17505;BME280;8870;50.950;11.762;2023-02-23T20:27:23;97988.91;;;8.74;100.00
17505;BME280;8870;50.950;11.762;2023-02-23T20:32:46;97999.03;;;8.54;100.00
17505;BME280;8870;50.950;11.762;2023-02-23T20:38:17;98014.50;;;8.42;100.00
17505;BME280;8870;50.950;11.762;2023-02-23T20:43:48;98009.25;;;8.32;100.00
17505;BME280;8870;50.950;11.762;2023-02-23T20:49:10;98019.47;;;8.28;100.00
17505;BME280;8870;50.950;11.762;2023-02-23T20:54:43;98013.41;;;8.26;100.00
17505;BME280;8870;50.950;11.762;2023-02-23T21:00:05;98023.06;;;8.19;100.00
17505;BME280;8870;50.950;11.762;2023-02-23T21:05:44;98024.00;;;8.10;100.00
17505;BME280;8870;50.950;11.762;2023-02-23T21:11:03;98033.53;;;8.04;100.00
17505;BME280;8870;50.950;11.762;2023-02-23T21:16:35;98041.34;;;7.97;100.00
17505;BME280;8870;50.950;11.762;2023-02-23T21:22:02;98047.34;;;7.91;100.00
17505;BME280;8870;50.950;11.762;2023-02-23T21:27:37;98041.56;;;7.86;100.00
17505;BME280;8870;50.950;11.762;2023-02-23T21:32:57;98041.88;;;7.83;100.00
17505;BME280;8870;50.950;11.762;2023-02-23T21:38:30;98052.22;;;7.78;100.00
17505;BME280;8870;50.950;11.762;2023-02-23T21:44:03;98050.31;;;7.70;100.00
17505;BME280;8870;50.950;11.762;2023-02-23T21:49:22;98046.09;;;7.67;100.00
17505;BME280;8870;50.950;11.762;2023-02-23T21:54:55;98029.31;;;7.65;100.00
17505;BME280;8870;50.950;11.762;2023-02-23T22:00:28;98037.34;;;7.65;100.00
17505;BME280;8870;50.950;11.762;2023-02-23T22:06:01;98042.31;;;7.60;100.00
17505;BME280;8870;50.950;11.762;2023-02-23T22:11:23;98055.94;;;7.49;100.00
17505;BME280;8870;50.950;11.762;2023-02-23T22:16:57;98058.38;;;7.42;100.00
17505;BME280;8870;50.950;11.762;2023-02-23T22:22:18;98064.63;;;7.33;100.00
17505;BME280;8870;50.950;11.762;2023-02-23T22:27:51;98060.88;;;7.25;100.00
17505;BME280;8870;50.950;11.762;2023-02-23T22:33:10;98054.00;;;7.23;100.00
17505;BME280;8870;50.950;11.762;2023-02-23T22:38:41;98056.81;;;7.21;100.00
17505;BME280;8870;50.950;11.762;2023-02-23T22:44:17;98058.25;;;7.16;100.00
17505;BME280;8870;50.950;11.762;2023-02-23T22:49:37;98068.25;;;7.14;100.00
17505;BME280;8870;50.950;11.762;2023-02-23T22:55:08;98058.84;;;7.09;100.00
17505;BME280;8870;50.950;11.762;2023-02-23T23:00:29;98058.84;;;7.09;100.00
17505;BME280;8870;50.950;11.762;2023-02-23T23:06:01;98062.66;;;7.07;100.00
17505;BME280;8870;50.950;11.762;2023-02-23T23:11:20;98071.81;;;7.04;100.00
17505;BME280;8870;50.950;11.762;2023-02-23T23:16:55;98064.25;;;7.00;100.00
17505;BME280;8870;50.950;11.762;2023-02-23T23:22:14;98072.00;;;6.93;100.00
17505;BME280;8870;50.950;11.762;2023-02-23T23:27:45;98072.75;;;6.85;100.00
17505;BME280;8870;50.950;11.762;2023-02-23T23:33:08;98066.56;;;6.85;100.00
17505;BME280;8870;50.950;11.762;2023-02-23T23:38:39;98066.00;;;6.81;100.00
17505;BME280;8870;50.950;11.762;2023-02-23T23:44:11;98067.84;;;6.81;100.00
17505;BME280;8870;50.950;11.762;2023-02-23T23:49:35;98065.16;;;6.81;100.00
17505;BME280;8870;50.950;11.762;2023-02-23T23:55:07;98057.56;;;6.76;100.00
